Apple Springs, TX (75926)

12:07 AM CDT on September 04, 2015 (GMT -0500)
Old Bonner | | Change Station
CLOSE
Current Station
Personal Weather Station
Location: Lufkin, TX
Elevation: 282 ft
Nearby Weather Stations

Elev 282 ft 31.35 °N, 94.88 °W | Updated 1 minute ago

Clear
Clear
75.6 °F
Feels Like 75 °F
N
0.0
Wind Variable Wind from ESE

Today
High -- | Low -- °F
--% Chance of Precip.
Yesterday
High -- | Low -- °F
Precip. -- in
6:57 AM 7:39 PM
Waning Gibbous, 63% visible
Pressure 29.90 in
Visibility 10.0 miles
Clouds Scattered Clouds 10000 ft
Heat Index 75 °F
Dew Point 73 °F
Humidity 92%
Rainfall in
Snow Depth Not available.
UV 0 out of 12
Pollen 5.30 out of 12
Air Quality Not available.
Flu Activity Not available.
METAR KLFK 040453Z AUTO 00000KT 10SM SCT100 24/22 A2991 RMK AO2 SLP124 T02440217
Pressure 29.90 in
Visibility 10.0 miles
Clouds Scattered Clouds 10000 ft
Heat Index 75 °F
Dew Point 73 °F
Humidity 92%
Rainfall in
Snow Depth Not available.
UV 0 out of 12
Pollen 5.30 out of 12
Air Quality Not available.
Flu Activity Not available.
METAR KLFK 040453Z AUTO 00000KT 10SM SCT100 24/22 A2991 RMK AO2 SLP124 T02440217

10-Day Weather Forecast

×

Almanac

Astronomy

Sep. 04, 2015 Rise Set
Actual Time
Civil Twilight
Nautical Twilight
Astronomical Twilight
Moon
Length of Visible Light
Length of Day
Tomorrow will be .
, % of the Moon is Illuminated

Today's Extremes

State Highs State Lows

Community

WunderPhotos

Upload Photos

1,852,129 photos uploaded!

WunderBlogs® & News

Nearby

Air Quality

  Air Quality AQ Index Pollutant
Not available.

Snow Depth

Station Depth Elevation

Earthquake Activity

City Distance Mag. Time & Date
Minimum magnitude displayed is 2.5.

Coastal Water Temperatures

Place Temperature

Stations

Nearby Weather Stations

Station Location Temp. Windchill Dew Point Humidity Wind Precip. Elev Updated Type